createdAt,value
2023-04-18T00:00:25.850Z,4.72
2023-04-18T00:03:15.963Z,4.03
2023-04-18T00:05:47.952Z,3.92
2023-04-18T00:08:17.158Z,4.82
2023-04-18T00:10:44.598Z,4.13
2023-04-18T00:13:12.512Z,5.03
2023-04-18T00:15:44.021Z,4.30
2023-04-18T00:18:16.290Z,6.72
2023-04-18T00:20:43.954Z,5.88
2023-04-18T00:23:14.199Z,12.50
2023-04-18T00:25:41.503Z,5.47
2023-04-18T00:28:10.069Z,4.65
2023-04-18T00:30:38.745Z,4.25
2023-04-18T00:33:06.527Z,4.78
2023-04-18T00:35:33.878Z,4.60
2023-04-18T00:38:02.495Z,4.53
2023-04-18T00:40:31.887Z,4.10
2023-04-18T00:43:01.040Z,4.00
2023-04-18T00:45:28.457Z,4.03
2023-04-18T00:47:56.566Z,4.50
2023-04-18T00:50:24.536Z,3.90
2023-04-18T00:52:54.084Z,3.75
2023-04-18T00:55:23.086Z,4.15
2023-04-18T00:57:53.240Z,4.25
2023-04-18T01:00:21.116Z,4.07
2023-04-18T01:02:53.245Z,4.05
2023-04-18T01:05:21.797Z,4.75
2023-04-18T01:07:50.052Z,4.13
2023-04-18T01:10:18.089Z,5.55
2023-04-18T01:12:45.982Z,4.00
2023-04-18T01:15:13.574Z,4.28
2023-04-18T01:17:44.667Z,4.22
2023-04-18T01:20:17.861Z,5.38
2023-04-18T01:22:46.178Z,5.10
2023-04-18T01:25:13.625Z,5.05
2023-04-18T01:27:41.248Z,4.68
2023-04-18T01:30:09.225Z,4.65
2023-04-18T01:32:36.892Z,4.30
2023-04-18T01:35:06.144Z,4.10
2023-04-18T01:37:35.620Z,4.55
2023-04-18T01:40:09.743Z,4.63
2023-04-18T01:42:39.598Z,4.20
2023-04-18T01:45:08.129Z,4.65
2023-04-18T01:47:35.890Z,5.45
2023-04-18T01:50:04.106Z,4.38
2023-04-18T01:52:35.649Z,4.80
2023-04-18T01:55:03.876Z,4.63
2023-04-18T01:57:33.657Z,3.97
2023-04-18T02:00:07.162Z,4.38
2023-04-18T02:02:44.319Z,4.57
2023-04-18T02:05:11.884Z,3.75
2023-04-18T02:07:42.834Z,4.18
2023-04-18T02:10:11.379Z,3.63
2023-04-18T02:12:39.702Z,3.47
2023-04-18T02:15:07.499Z,3.40
2023-04-18T02:17:36.912Z,3.40
2023-04-18T02:20:08.282Z,3.15
2023-04-18T02:22:38.350Z,8.80
2023-04-18T02:25:06.038Z,3.55
2023-04-18T02:27:36.739Z,2.50
2023-04-18T02:30:06.425Z,2.78
2023-04-18T02:32:35.041Z,3.15
2023-04-18T02:35:02.450Z,3.00
2023-04-18T02:37:30.109Z,2.33
2023-04-18T02:39:57.488Z,1.98
2023-04-18T02:42:25.079Z,2.30
2023-04-18T02:44:52.545Z,1.98
2023-04-18T02:47:20.331Z,2.15
2023-04-18T02:49:47.703Z,2.25
2023-04-18T02:52:17.731Z,3.58
2023-04-18T02:54:45.259Z,2.13
2023-04-18T02:57:20.847Z,2.35
2023-04-18T03:00:09.556Z,1.60
2023-04-18T03:03:17.026Z,2.00
2023-04-18T03:06:03.258Z,2.00
2023-04-18T03:08:32.954Z,1.80
2023-04-18T03:11:00.534Z,2.15
2023-04-18T03:13:30.818Z,2.15
2023-04-18T03:15:58.968Z,2.35
2023-04-18T03:18:29.034Z,4.85
2023-04-18T03:20:59.180Z,3.03
2023-04-18T03:23:28.167Z,3.47
2023-04-18T03:25:55.690Z,2.53
2023-04-18T03:28:24.552Z,2.90
2023-04-18T03:30:51.889Z,2.83
2023-04-18T03:33:19.504Z,3.22
2023-04-18T03:35:49.858Z,1.90
2023-04-18T03:38:17.486Z,2.00
2023-04-18T03:40:45.465Z,2.70
2023-04-18T03:43:21.959Z,2.50
2023-04-18T03:45:50.222Z,1.85
2023-04-18T03:48:18.990Z,2.00
2023-04-18T03:50:47.553Z,2.13
2023-04-18T03:53:16.215Z,2.42
2023-04-18T03:55:43.783Z,1.90
2023-04-18T03:58:16.414Z,1.95
2023-04-18T04:00:47.727Z,2.05
2023-04-18T04:03:17.350Z,2.13
2023-04-18T04:05:46.776Z,10.93
2023-04-18T04:08:16.646Z,2.65
2023-04-18T04:10:46.556Z,3.05
2023-04-18T04:13:14.187Z,3.30
2023-04-18T04:15:42.289Z,2.38
2023-04-18T04:18:13.099Z,2.28
2023-04-18T04:20:48.081Z,2.30
2023-04-18T04:23:43.013Z,2.90
2023-04-18T04:26:23.382Z,2.00
2023-04-18T04:29:04.427Z,2.08
2023-04-18T04:31:34.383Z,2.42
2023-04-18T04:34:03.427Z,2.28
2023-04-18T04:36:33.506Z,2.95
2023-04-18T04:39:04.332Z,1.48
2023-04-18T04:41:49.910Z,1.98
2023-04-18T04:44:22.080Z,2.25
2023-04-18T04:46:49.966Z,2.70
2023-04-18T04:49:22.689Z,2.10
2023-04-18T04:51:49.954Z,2.10
2023-04-18T04:54:21.498Z,1.42
2023-04-18T04:56:49.083Z,5.45
2023-04-18T04:59:16.896Z,2.63
2023-04-18T05:01:46.865Z,2.75
2023-04-18T05:04:18.760Z,1.85
2023-04-18T05:06:46.558Z,2.00
2023-04-18T05:09:16.602Z,2.00
2023-04-18T05:11:43.972Z,1.95
2023-04-18T05:14:12.707Z,2.22
2023-04-18T05:16:40.500Z,1.73
2023-04-18T05:19:08.198Z,2.55
2023-04-18T05:21:35.864Z,1.52
2023-04-18T05:24:03.746Z,1.85
2023-04-18T05:26:33.395Z,9.18
2023-04-18T05:29:01.007Z,1.73
2023-04-18T05:31:28.401Z,2.30
2023-04-18T05:33:57.109Z,2.08
2023-04-18T05:36:24.504Z,1.48
2023-04-18T05:38:53.876Z,2.22
2023-04-18T05:41:21.489Z,1.90
2023-04-18T05:44:01.855Z,2.50
2023-04-18T05:46:34.151Z,2.55
2023-04-18T05:49:05.019Z,2.47
2023-04-18T05:51:33.470Z,1.88
2023-04-18T05:54:01.059Z,2.00
2023-04-18T05:56:28.396Z,1.85
2023-04-18T05:58:56.203Z,3.10
2023-04-18T06:01:24.013Z,2.35
2023-04-18T06:03:52.738Z,2.33
2023-04-18T06:06:20.567Z,3.08
2023-04-18T06:08:48.188Z,3.03
2023-04-18T06:11:15.929Z,2.35
2023-04-18T06:13:45.907Z,2.50
2023-04-18T06:16:13.729Z,2.65
2023-04-18T06:18:41.363Z,2.10
2023-04-18T06:21:10.970Z,2.72
2023-04-18T06:23:39.933Z,3.25
2023-04-18T06:26:07.554Z,2.22
2023-04-18T06:28:35.733Z,3.00
2023-04-18T06:31:04.129Z,2.50
2023-04-18T06:33:31.747Z,2.65
2023-04-18T06:35:59.769Z,3.03
2023-04-18T06:38:28.117Z,3.65
2023-04-18T06:40:55.453Z,4.15
2023-04-18T06:43:23.091Z,2.78
2023-04-18T06:45:51.701Z,3.55
2023-04-18T06:48:21.057Z,5.18
2023-04-18T06:50:49.076Z,3.85
2023-04-18T06:53:16.634Z,3.90
2023-04-18T06:55:44.033Z,3.72
2023-04-18T06:58:13.851Z,3.83
2023-04-18T07:00:41.487Z,3.00
2023-04-18T07:03:13.859Z,5.35
2023-04-18T07:05:41.635Z,7.65
2023-04-18T07:08:09.373Z,4.00
2023-04-18T07:10:38.066Z,5.45
2023-04-18T07:13:06.699Z,5.45
2023-04-18T07:15:38.037Z,3.13
2023-04-18T07:18:05.806Z,3.85
2023-04-18T07:20:33.298Z,4.68
2023-04-18T07:23:02.215Z,3.90
2023-04-18T07:25:29.510Z,6.75
2023-04-18T07:27:57.123Z,6.53
2023-04-18T07:30:25.151Z,5.00
2023-04-18T07:32:52.888Z,5.35
2023-04-18T07:35:20.833Z,5.82
2023-04-18T07:37:48.630Z,5.60
2023-04-18T07:40:16.835Z,3.83
2023-04-18T07:42:44.948Z,3.03
2023-04-18T07:45:15.525Z,4.45
2023-04-18T07:47:44.832Z,7.13
2023-04-18T07:50:13.600Z,23.58
2023-04-18T07:52:41.325Z,4.60
2023-04-18T07:55:09.868Z,10.68
2023-04-18T07:57:38.992Z,4.38
2023-04-18T08:00:09.523Z,5.13
2023-04-18T08:02:43.349Z,5.38
2023-04-18T08:05:11.082Z,6.32
2023-04-18T08:07:39.028Z,4.32
2023-04-18T08:10:06.956Z,3.97
2023-04-18T08:12:36.409Z,4.07
2023-04-18T08:15:04.603Z,5.65
2023-04-18T08:17:33.266Z,4.10
2023-04-18T08:20:01.101Z,12.52
2023-04-18T08:22:28.709Z,3.90
2023-04-18T08:25:04.340Z,4.63
2023-04-18T08:27:33.468Z,2.97
2023-04-18T08:30:01.379Z,3.55
2023-04-18T08:32:30.075Z,3.97
2023-04-18T08:34:57.346Z,5.07
2023-04-18T08:37:24.979Z,3.90
2023-04-18T08:39:52.272Z,5.70
2023-04-18T08:42:21.674Z,3.45
2023-04-18T08:44:52.753Z,3.15
2023-04-18T08:47:20.910Z,2.17
2023-04-18T08:49:48.951Z,3.08
2023-04-18T08:52:19.732Z,4.20
2023-04-18T08:54:47.324Z,5.43
2023-04-18T08:57:17.099Z,5.05
2023-04-18T08:59:49.627Z,4.60
2023-04-18T09:02:19.547Z,5.00
2023-04-18T09:04:49.496Z,3.78
2023-04-18T09:07:18.578Z,3.35
2023-04-18T09:09:48.894Z,3.00
2023-04-18T09:12:22.825Z,2.88
2023-04-18T09:14:56.594Z,6.65
2023-04-18T09:17:37.048Z,5.93
2023-04-18T09:20:13.130Z,3.95
2023-04-18T09:22:48.207Z,3.13
2023-04-18T09:25:29.561Z,5.15
2023-04-18T09:28:00.891Z,3.88
2023-04-18T09:30:39.733Z,5.78
2023-04-18T09:33:10.314Z,4.13
2023-04-18T09:35:38.483Z,6.25
2023-04-18T09:38:07.965Z,3.78
2023-04-18T09:40:36.219Z,3.00
2023-04-18T09:43:20.434Z,3.80
2023-04-18T09:45:51.091Z,3.13
2023-04-18T09:48:18.790Z,5.05
2023-04-18T09:51:14.921Z,3.80
2023-04-18T09:53:55.582Z,4.25
2023-04-18T09:56:29.613Z,6.13
2023-04-18T09:59:07.483Z,10.88
2023-04-18T10:01:35.440Z,5.85
2023-04-18T10:04:06.950Z,10.07
2023-04-18T10:06:38.574Z,5.00
2023-04-18T10:09:08.760Z,6.93
2023-04-18T10:11:36.624Z,5.85
2023-04-18T10:14:09.935Z,5.50
2023-04-18T10:16:38.890Z,5.53
2023-04-18T10:19:27.358Z,3.85
2023-04-18T10:21:56.133Z,4.72
2023-04-18T10:24:45.953Z,3.38
2023-04-18T10:27:13.483Z,2.75
2023-04-18T10:30:08.973Z,2.78
2023-04-18T10:32:36.560Z,3.92
2023-04-18T10:35:05.442Z,3.90
2023-04-18T10:37:34.362Z,4.15
2023-04-18T10:40:09.926Z,3.53
2023-04-18T10:42:47.052Z,2.70
2023-04-18T10:45:21.519Z,2.55
2023-04-18T10:47:50.090Z,2.75
2023-04-18T10:50:18.173Z,3.20
2023-04-18T10:52:47.073Z,3.97
2023-04-18T10:55:20.920Z,3.95
2023-04-18T10:57:51.894Z,8.25
2023-04-18T11:00:25.080Z,6.47
2023-04-18T11:02:57.707Z,10.32
2023-04-18T11:05:29.424Z,5.57
2023-04-18T11:07:56.819Z,5.03
2023-04-18T11:10:27.186Z,4.55
2023-04-18T11:12:56.699Z,4.65
2023-04-18T11:15:25.668Z,4.15
2023-04-18T11:18:05.212Z,28.17
2023-04-18T11:20:41.094Z,4.45
2023-04-18T11:23:25.100Z,5.25
2023-04-18T11:25:56.721Z,3.93
2023-04-18T11:28:27.282Z,4.03
2023-04-18T11:31:01.941Z,3.17
2023-04-18T11:33:29.891Z,3.05
2023-04-18T11:36:01.845Z,3.95
2023-04-18T11:38:34.037Z,3.88
2023-04-18T11:41:03.316Z,5.53
2023-04-18T11:43:30.770Z,4.30
2023-04-18T11:46:00.388Z,11.25
2023-04-18T11:48:38.450Z,44.33
2023-04-18T11:51:10.902Z,22.92
2023-04-18T11:53:39.683Z,6.55
2023-04-18T11:56:07.641Z,6.00
2023-04-18T11:58:36.535Z,14.50
2023-04-18T12:01:36.016Z,14.27
2023-04-18T12:18:34.405Z,5.57
2023-04-18T12:21:06.048Z,8.43
2023-04-18T12:23:35.766Z,5.93
2023-04-18T12:26:05.967Z,5.82
2023-04-18T12:28:35.565Z,5.85
2023-04-18T12:31:05.667Z,3.78
2023-04-18T12:33:38.754Z,4.00
2023-04-18T12:36:08.606Z,4.15
2023-04-18T12:38:36.283Z,4.63
2023-04-18T12:41:04.175Z,5.88
2023-04-18T12:43:31.725Z,4.28
2023-04-18T12:46:00.422Z,4.55
2023-04-18T12:48:28.182Z,4.63
2023-04-18T12:50:55.915Z,4.50
2023-04-18T12:53:23.279Z,6.00
2023-04-18T12:55:54.006Z,14.13
2023-04-18T12:58:21.811Z,4.82
2023-04-18T13:00:49.772Z,4.18
2023-04-18T13:03:18.516Z,4.05
2023-04-18T13:05:46.260Z,5.82
2023-04-18T13:08:17.668Z,5.65
2023-04-18T13:10:47.828Z,4.72
2023-04-18T13:13:15.322Z,7.78
2023-04-18T13:15:43.089Z,4.13
2023-04-18T13:18:10.508Z,6.78
2023-04-18T13:20:38.521Z,8.77
2023-04-18T13:23:08.177Z,4.32
2023-04-18T13:25:36.628Z,4.85
2023-04-18T13:28:04.695Z,4.78
2023-04-18T13:30:32.520Z,4.82
2023-04-18T13:33:00.140Z,5.90
2023-04-18T13:35:28.570Z,4.80
2023-04-18T13:37:56.878Z,4.90
2023-04-18T13:40:29.421Z,5.15
2023-04-18T13:42:58.179Z,4.55
2023-04-18T13:45:25.895Z,5.32
2023-04-18T13:47:53.421Z,4.95
2023-04-18T13:50:23.336Z,5.90
2023-04-18T13:52:54.949Z,8.75
2023-04-18T13:55:22.967Z,5.22
2023-04-18T13:57:50.377Z,5.68
2023-04-18T14:00:19.516Z,7.93
2023-04-18T14:02:47.140Z,52.28
2023-04-18T14:05:14.992Z,11.07
2023-04-18T14:07:42.321Z,6.65
2023-04-18T14:10:10.596Z,5.65
2023-04-18T14:12:38.247Z,5.60
2023-04-18T14:15:06.481Z,5.80
2023-04-18T14:17:34.267Z,5.95
2023-04-18T14:20:02.551Z,6.05
2023-04-18T14:22:35.007Z,6.50
2023-04-18T14:25:03.043Z,5.82
2023-04-18T14:27:30.357Z,7.22
2023-04-18T14:29:58.054Z,7.65
2023-04-18T14:32:25.536Z,8.88
2023-04-18T14:34:53.646Z,7.45
2023-04-18T14:37:21.396Z,7.30
2023-04-18T14:39:50.766Z,6.80
2023-04-18T14:42:18.656Z,5.75
2023-04-18T14:44:46.541Z,5.32
2023-04-18T14:47:15.405Z,7.22
2023-04-18T14:49:43.052Z,6.25
2023-04-18T14:52:10.476Z,7.15
2023-04-18T14:54:38.147Z,6.90
2023-04-18T14:57:05.461Z,6.82
2023-04-18T14:59:33.176Z,5.70
2023-04-18T15:02:00.699Z,4.93
2023-04-18T15:04:28.602Z,5.47
2023-04-18T15:06:56.529Z,5.10
2023-04-18T15:09:24.514Z,5.65
2023-04-18T15:11:54.519Z,6.30
2023-04-18T15:14:23.630Z,6.35
2023-04-18T15:16:51.883Z,5.82
2023-04-18T15:19:19.646Z,5.35
2023-04-18T15:21:47.023Z,4.13
2023-04-18T15:24:16.443Z,3.85
2023-04-18T15:26:45.741Z,5.10
2023-04-18T15:29:14.156Z,4.90
2023-04-18T15:31:41.668Z,5.45
2023-04-18T15:34:11.870Z,7.63
2023-04-18T15:36:39.378Z,7.50
2023-04-18T15:39:07.617Z,8.65
2023-04-18T15:41:37.363Z,9.23
2023-04-18T15:44:08.140Z,6.93
2023-04-18T15:46:36.921Z,7.47
2023-04-18T15:49:04.809Z,5.80
2023-04-18T15:51:32.173Z,4.97
2023-04-18T15:54:01.062Z,6.28
2023-04-18T15:56:33.079Z,9.30
2023-04-18T15:59:02.657Z,9.43
2023-04-18T16:01:30.569Z,8.70
2023-04-18T16:04:01.764Z,7.07
2023-04-18T16:06:31.417Z,9.57
2023-04-18T16:09:01.563Z,8.68
2023-04-18T16:11:30.635Z,8.35
2023-04-18T16:13:59.119Z,8.05
2023-04-18T16:16:28.473Z,7.15
2023-04-18T16:18:58.464Z,7.88
2023-04-18T16:21:26.419Z,7.63
2023-04-18T16:23:54.261Z,7.35
2023-04-18T16:26:21.755Z,9.82
2023-04-18T16:28:49.474Z,9.77
2023-04-18T16:31:17.253Z,9.85
2023-04-18T16:33:45.561Z,8.52
2023-04-18T16:36:14.038Z,7.80
2023-04-18T16:38:41.715Z,9.60
2023-04-18T16:41:10.019Z,8.23
2023-04-18T16:43:38.194Z,19.77
2023-04-18T16:46:05.838Z,11.38
2023-04-18T16:48:33.658Z,10.45
2023-04-18T16:51:02.594Z,11.77
2023-04-18T16:53:31.703Z,17.67
2023-04-18T16:56:03.387Z,15.88
2023-04-18T16:58:35.577Z,11.15
2023-04-18T17:01:03.513Z,15.10
2023-04-18T17:03:31.678Z,20.88
2023-04-18T17:06:01.607Z,23.33
2023-04-18T17:08:29.490Z,14.52
2023-04-18T17:10:56.837Z,23.55
2023-04-18T17:13:27.169Z,16.27
2023-04-18T17:15:56.439Z,24.00
2023-04-18T17:18:29.604Z,25.05
2023-04-18T17:21:00.887Z,24.40
2023-04-18T17:23:32.889Z,21.45
2023-04-18T17:26:02.557Z,26.05
2023-04-18T17:28:30.661Z,43.35
2023-04-18T17:31:01.531Z,28.35
2023-04-18T17:33:29.181Z,30.17
2023-04-18T17:35:59.255Z,26.58
2023-04-18T17:38:28.578Z,27.65
2023-04-18T17:40:59.781Z,29.08
2023-04-18T17:43:27.642Z,29.90
2023-04-18T17:45:56.164Z,42.63
2023-04-18T17:48:27.629Z,39.83
2023-04-18T17:50:56.845Z,41.22
2023-04-18T17:53:24.652Z,36.63
2023-04-18T17:55:58.992Z,34.97
2023-04-18T17:58:29.298Z,37.00
2023-04-18T18:00:56.969Z,38.17
2023-04-18T18:03:25.591Z,35.83
2023-04-18T18:05:55.701Z,29.17
2023-04-18T18:08:26.532Z,26.77
2023-04-18T18:10:54.578Z,27.75
2023-04-18T18:13:32.785Z,26.90
2023-04-18T18:16:06.797Z,27.45
2023-04-18T18:18:56.924Z,32.50
2023-04-18T18:21:31.280Z,40.50
2023-04-18T18:26:36.270Z,47.42
2023-04-18T18:29:24.066Z,47.63
2023-04-18T18:31:58.178Z,48.70
2023-04-18T18:34:37.069Z,52.45
2023-04-18T18:37:18.765Z,38.63
2023-04-18T18:39:50.426Z,52.33
2023-04-18T18:42:23.660Z,54.05
2023-04-18T18:44:54.220Z,52.00
2023-04-18T18:47:27.924Z,38.13
2023-04-18T18:50:22.932Z,31.17
2023-04-18T18:52:57.727Z,29.40
2023-04-18T18:55:39.760Z,30.38
2023-04-18T18:58:22.999Z,23.58
2023-04-18T19:03:48.682Z,18.98
2023-04-18T19:06:18.559Z,19.60
2023-04-18T19:09:03.630Z,19.52
2023-04-18T19:12:04.635Z,20.90
2023-04-18T19:14:46.982Z,20.80
2023-04-18T19:17:24.919Z,17.52
2023-04-18T19:20:00.387Z,18.45
2023-04-18T19:26:23.256Z,16.77
2023-04-18T19:28:52.933Z,13.43
2023-04-18T19:31:56.811Z,14.27
2023-04-18T19:34:30.701Z,12.02
2023-04-18T19:37:01.946Z,14.77
2023-04-18T19:39:32.014Z,13.82
2023-04-18T19:42:03.104Z,11.70
2023-04-18T19:47:34.132Z,13.23
2023-04-18T19:50:25.884Z,14.75
2023-04-18T19:52:53.657Z,14.63
2023-04-18T19:55:22.219Z,19.40
2023-04-18T19:58:00.904Z,24.30
2023-04-18T20:00:57.887Z,24.15
2023-04-18T20:03:38.872Z,19.85
2023-04-18T20:06:35.485Z,21.33
2023-04-18T20:09:18.498Z,23.30
2023-04-18T20:11:50.699Z,21.35
2023-04-18T20:14:18.293Z,23.73
2023-04-18T20:16:50.754Z,24.30
2023-04-18T20:19:44.626Z,24.17
2023-04-18T20:22:15.236Z,25.63
2023-04-18T20:24:49.636Z,30.65
2023-04-18T20:27:20.810Z,31.70
2023-04-18T20:29:51.604Z,29.38
2023-04-18T20:32:26.060Z,25.63
2023-04-18T20:34:53.716Z,23.63
2023-04-18T20:37:29.400Z,25.08
2023-04-18T20:40:00.118Z,24.17
2023-04-18T20:42:33.213Z,25.00
2023-04-18T20:45:17.604Z,26.30
2023-04-18T20:48:13.121Z,25.08
2023-04-18T20:51:13.271Z,25.53
2023-04-18T20:53:43.772Z,25.60
2023-04-18T20:56:18.133Z,24.67
2023-04-18T20:58:56.158Z,22.17
2023-04-18T21:01:38.292Z,22.83
2023-04-18T21:04:11.721Z,19.65
2023-04-18T21:06:40.710Z,22.58
2023-04-18T21:09:13.486Z,16.98
2023-04-18T21:11:43.238Z,14.80
2023-04-18T21:14:11.097Z,16.27
2023-04-18T21:16:44.616Z,16.17
2023-04-18T21:19:20.831Z,18.35
2023-04-18T21:21:51.637Z,18.15
2023-04-18T21:24:26.475Z,20.85
2023-04-18T21:26:57.987Z,22.90
2023-04-18T21:29:25.722Z,23.77
2023-04-18T21:31:53.351Z,31.88
2023-04-18T21:34:23.257Z,22.95
2023-04-18T21:36:58.978Z,21.63
2023-04-18T21:39:33.696Z,21.85
2023-04-18T21:42:07.079Z,17.48
2023-04-18T21:44:38.077Z,17.85
2023-04-18T21:47:07.430Z,20.90
2023-04-18T21:49:38.104Z,20.10
2023-04-18T21:52:18.169Z,18.38
2023-04-18T21:54:56.665Z,19.50
2023-04-18T21:57:25.486Z,16.85
2023-04-18T22:00:00.542Z,14.73
2023-04-18T22:03:32.584Z,13.10
2023-04-18T22:06:47.927Z,14.93
2023-04-18T22:09:58.727Z,31.30
2023-04-18T22:12:34.614Z,30.60
2023-04-18T22:15:14.222Z,31.80
2023-04-18T22:18:03.454Z,29.98
2023-04-18T22:20:58.313Z,21.85
2023-04-18T22:26:11.442Z,17.60
2023-04-18T22:28:40.244Z,17.45
2023-04-18T22:31:09.221Z,18.92
2023-04-18T22:33:36.590Z,18.92
2023-04-18T22:36:06.642Z,18.52
2023-04-18T22:38:34.124Z,21.75
2023-04-18T22:41:02.851Z,28.73
2023-04-18T22:43:36.353Z,25.25
2023-04-18T22:46:06.771Z,23.10
2023-04-18T22:48:52.586Z,23.33
2023-04-18T22:51:21.344Z,21.88
2023-04-18T22:53:48.911Z,80.85
2023-04-18T22:56:29.003Z,24.30
2023-04-18T22:58:56.640Z,20.50
2023-04-18T23:01:25.389Z,21.88
2023-04-18T23:03:53.263Z,20.63
2023-04-18T23:06:22.264Z,22.17
2023-04-18T23:08:50.262Z,22.10
2023-04-18T23:11:19.851Z,21.27
2023-04-18T23:13:48.068Z,21.27
2023-04-18T23:16:16.074Z,21.40
2023-04-18T23:18:44.677Z,22.05
2023-04-18T23:21:35.047Z,21.58
2023-04-18T23:24:05.404Z,20.65
2023-04-18T23:26:36.275Z,20.23
2023-04-18T23:29:05.042Z,23.33
2023-04-18T23:31:42.224Z,21.45
2023-04-18T23:34:11.037Z,23.08
2023-04-18T23:36:40.586Z,19.63
2023-04-18T23:39:11.376Z,21.05
2023-04-18T23:41:41.072Z,20.08
2023-04-18T23:44:08.624Z,20.15
2023-04-18T23:46:36.727Z,21.85
2023-04-18T23:49:05.694Z,20.95
2023-04-18T23:51:33.484Z,21.77
2023-04-18T23:54:01.540Z,21.52
2023-04-18T23:56:29.856Z,21.08
2023-04-18T23:58:57.572Z,20.10
